createdAt,value
2019-02-06T00:00:26.433Z,0.00
2019-02-06T00:01:18.668Z,0.00
2019-02-06T00:02:18.675Z,0.00
2019-02-06T00:03:18.648Z,0.00
2019-02-06T00:04:18.633Z,0.00
2019-02-06T00:05:18.623Z,0.00
2019-02-06T00:06:18.612Z,0.00
2019-02-06T00:07:18.621Z,0.00
2019-02-06T00:08:18.589Z,0.00
2019-02-06T00:09:18.604Z,0.00
2019-02-06T00:10:18.568Z,0.00
2019-02-06T00:11:18.558Z,0.00
2019-02-06T00:12:18.566Z,0.00
2019-02-06T00:13:18.564Z,0.00
2019-02-06T00:14:18.528Z,0.00
2019-02-06T00:15:18.544Z,0.00
2019-02-06T00:16:18.502Z,0.00
2019-02-06T00:17:18.540Z,0.00
2019-02-06T00:18:18.501Z,0.00
2019-02-06T00:19:18.492Z,0.00
2019-02-06T00:20:18.463Z,0.00
2019-02-06T00:21:20.680Z,0.00
2019-02-06T00:22:18.440Z,0.00
2019-02-06T00:23:18.548Z,0.00
2019-02-06T00:24:18.488Z,0.00
2019-02-06T00:25:18.407Z,0.00
2019-02-06T00:26:18.397Z,0.00
2019-02-06T00:27:18.384Z,0.00
2019-02-06T00:28:18.390Z,0.00
2019-02-06T00:29:18.364Z,0.00
2019-02-06T00:30:18.373Z,0.00
2019-02-06T00:31:18.339Z,0.00
2019-02-06T00:32:18.335Z,0.00
2019-02-06T00:33:18.338Z,0.00
2019-02-06T00:34:18.305Z,0.00
2019-02-06T00:35:25.502Z,0.00
2019-02-06T00:36:18.307Z,0.00
2019-02-06T00:37:18.274Z,0.00
2019-02-06T00:38:18.284Z,0.00
2019-02-06T00:39:18.266Z,0.00
2019-02-06T00:40:18.243Z,0.00
2019-02-06T00:41:18.229Z,0.00
2019-02-06T00:42:18.220Z,0.00
2019-02-06T00:43:18.228Z,0.00
2019-02-06T00:44:18.201Z,0.00
2019-02-06T00:45:18.186Z,0.00
2019-02-06T00:46:18.174Z,0.00
2019-02-06T00:47:18.166Z,0.00
2019-02-06T00:48:18.177Z,0.00
2019-02-06T00:49:18.142Z,0.00
2019-02-06T00:50:18.130Z,0.00
2019-02-06T00:51:18.234Z,0.00
2019-02-06T00:52:18.111Z,0.00
2019-02-06T00:53:18.121Z,0.00
2019-02-06T00:54:18.087Z,0.00
2019-02-06T00:55:18.080Z,0.00
2019-02-06T00:56:18.070Z,0.00
2019-02-06T00:57:18.079Z,0.00
2019-02-06T00:58:18.064Z,0.00
2019-02-06T00:59:18.034Z,0.00
2019-02-06T01:00:18.137Z,0.00
2019-02-06T01:01:18.016Z,0.00
2019-02-06T01:02:18.000Z,0.00
2019-02-06T01:03:18.017Z,0.00
2019-02-06T01:04:18.006Z,0.00
2019-02-06T01:05:17.967Z,0.00
2019-02-06T01:06:17.967Z,0.00
2019-02-06T01:07:17.949Z,0.00
2019-02-06T01:08:17.955Z,0.00
2019-02-06T01:09:17.944Z,0.00
2019-02-06T01:10:17.932Z,0.00
2019-02-06T01:11:17.902Z,0.00
2019-02-06T01:12:17.895Z,0.00
2019-02-06T01:13:17.901Z,0.00
2019-02-06T01:14:17.879Z,0.00
2019-02-06T01:15:17.858Z,0.00
2019-02-06T01:16:17.848Z,0.00
2019-02-06T01:17:17.836Z,0.00
2019-02-06T01:18:17.844Z,0.00
2019-02-06T01:19:17.815Z,0.00
2019-02-06T01:20:17.803Z,0.00
2019-02-06T01:21:17.796Z,0.00
2019-02-06T01:22:17.783Z,0.00
2019-02-06T01:23:17.790Z,0.00
2019-02-06T01:24:17.759Z,0.00
2019-02-06T01:25:17.748Z,0.00
2019-02-06T01:26:17.739Z,0.00
2019-02-06T01:27:17.727Z,0.00
2019-02-06T01:28:17.735Z,0.00
2019-02-06T01:29:17.706Z,0.00
2019-02-06T01:30:17.800Z,0.00
2019-02-06T01:31:17.723Z,0.00
2019-02-06T01:32:17.675Z,0.00
2019-02-06T01:33:17.682Z,0.00
2019-02-06T01:34:17.653Z,0.00
2019-02-06T01:35:17.639Z,0.00
2019-02-06T01:36:17.629Z,0.00
2019-02-06T01:37:17.617Z,0.00
2019-02-06T01:38:17.628Z,0.00
2019-02-06T01:39:17.595Z,0.00
2019-02-06T01:40:17.592Z,0.00
2019-02-06T01:41:17.574Z,0.00
2019-02-06T01:42:17.565Z,0.00
2019-02-06T01:43:17.576Z,0.00
2019-02-06T01:44:17.542Z,0.00
2019-02-06T01:45:17.531Z,0.00
2019-02-06T01:46:17.520Z,0.00
2019-02-06T01:47:17.510Z,0.00
2019-02-06T01:48:17.522Z,0.00
2019-02-06T01:49:17.486Z,0.00
2019-02-06T01:50:17.477Z,0.00
2019-02-06T01:51:17.495Z,0.00
2019-02-06T01:52:17.454Z,0.00
2019-02-06T01:53:17.462Z,0.00
2019-02-06T01:54:17.438Z,0.00
2019-02-06T01:55:17.423Z,0.00
2019-02-06T01:56:17.411Z,0.00
2019-02-06T01:57:17.411Z,0.00
2019-02-06T01:58:17.422Z,0.00
2019-02-06T01:59:17.378Z,0.00
2019-02-06T02:00:17.368Z,0.00
2019-02-06T02:01:17.356Z,0.00
2019-02-06T02:02:17.345Z,0.00
2019-02-06T02:03:17.337Z,0.00
2019-02-06T02:04:17.345Z,0.00
2019-02-06T02:05:17.317Z,0.00
2019-02-06T02:06:17.311Z,0.00
2019-02-06T02:07:17.292Z,0.00
2019-02-06T02:08:17.281Z,0.00
2019-02-06T02:09:17.291Z,0.00
2019-02-06T02:10:17.258Z,0.00
2019-02-06T02:11:17.248Z,0.00
2019-02-06T02:12:17.261Z,0.00
2019-02-06T02:13:17.229Z,0.00
2019-02-06T02:14:17.236Z,0.00
2019-02-06T02:15:17.214Z,0.00
2019-02-06T02:16:17.300Z,0.00
2019-02-06T02:17:17.189Z,0.00
2019-02-06T02:18:17.193Z,0.00
2019-02-06T02:19:17.189Z,0.00
2019-02-06T02:20:17.164Z,0.00
2019-02-06T02:21:17.143Z,0.00
2019-02-06T02:22:25.544Z,0.00
2019-02-06T02:23:17.120Z,0.00
2019-02-06T02:24:17.141Z,0.00
2019-02-06T02:25:17.098Z,0.00
2019-02-06T02:26:17.086Z,0.00
2019-02-06T02:27:17.076Z,0.00
2019-02-06T02:28:17.066Z,0.00
2019-02-06T02:29:17.078Z,0.00
2019-02-06T02:30:17.046Z,0.00
2019-02-06T02:31:17.033Z,0.00
2019-02-06T02:32:17.020Z,0.00
2019-02-06T02:33:17.058Z,0.00
2019-02-06T02:34:17.024Z,0.00
2019-02-06T02:35:16.990Z,0.00
2019-02-06T02:36:16.976Z,0.00
2019-02-06T02:37:16.969Z,0.00
2019-02-06T02:38:16.957Z,0.00
2019-02-06T02:39:16.963Z,0.00
2019-02-06T02:40:16.941Z,0.00
2019-02-06T02:41:16.923Z,0.00
2019-02-06T02:42:16.919Z,0.00
2019-02-06T02:43:16.900Z,0.00
2019-02-06T02:44:16.921Z,0.00
2019-02-06T02:45:16.878Z,0.00
2019-02-06T02:46:16.868Z,0.00
2019-02-06T02:47:16.858Z,0.00
2019-02-06T02:48:16.845Z,0.00
2019-02-06T02:49:16.854Z,0.00
2019-02-06T02:50:16.823Z,0.00
2019-02-06T02:51:16.819Z,0.00
2019-02-06T02:52:16.805Z,0.00
2019-02-06T02:53:16.793Z,0.00
2019-02-06T02:54:16.822Z,0.00
2019-02-06T02:55:16.773Z,0.00
2019-02-06T02:56:16.865Z,0.00
2019-02-06T02:57:16.749Z,0.00
2019-02-06T02:58:16.739Z,0.00
2019-02-06T02:59:16.727Z,0.00
2019-02-06T03:00:16.737Z,0.00
2019-02-06T03:01:16.704Z,0.00
2019-02-06T03:02:16.695Z,0.00
2019-02-06T03:03:16.686Z,0.00
2019-02-06T03:04:16.674Z,0.00
2019-02-06T03:05:16.681Z,0.00
2019-02-06T03:06:27.567Z,0.00
2019-02-06T03:07:16.644Z,0.00
2019-02-06T03:08:16.632Z,0.00
2019-02-06T03:09:16.620Z,0.00
2019-02-06T03:10:16.626Z,0.00
2019-02-06T03:11:16.595Z,0.00
2019-02-06T03:12:16.584Z,0.00
2019-02-06T03:13:16.572Z,0.00
2019-02-06T03:14:16.574Z,0.00
2019-02-06T03:15:16.578Z,0.00
2019-02-06T03:16:16.542Z,0.00
2019-02-06T03:17:16.531Z,0.00
2019-02-06T03:18:16.519Z,0.00
2019-02-06T03:19:16.510Z,0.00
2019-02-06T03:20:16.518Z,0.00
2019-02-06T03:21:16.487Z,0.00
2019-02-06T03:22:16.474Z,0.00
2019-02-06T03:23:16.464Z,0.00
2019-02-06T03:24:16.452Z,0.00
2019-02-06T03:25:16.461Z,0.00
2019-02-06T03:26:16.430Z,0.00
2019-02-06T03:27:16.420Z,0.00
2019-02-06T03:28:16.411Z,0.00
2019-02-06T03:29:16.404Z,0.00
2019-02-06T03:30:16.425Z,0.00
2019-02-06T03:31:16.379Z,0.00
2019-02-06T03:32:16.367Z,0.00
2019-02-06T03:33:16.360Z,0.00
2019-02-06T03:34:16.351Z,0.00
2019-02-06T03:35:16.353Z,0.00
2019-02-06T03:36:16.328Z,0.00
2019-02-06T03:37:16.314Z,0.00
2019-02-06T03:38:16.300Z,0.00
2019-02-06T03:39:16.289Z,0.00
2019-02-06T03:40:16.319Z,0.00
2019-02-06T03:41:16.266Z,0.00
2019-02-06T03:42:16.259Z,0.00
2019-02-06T03:43:16.245Z,0.00
2019-02-06T03:44:16.245Z,0.00
2019-02-06T03:45:16.246Z,0.00
2019-02-06T03:46:16.212Z,0.00
2019-02-06T03:47:16.205Z,0.00
2019-02-06T03:48:16.191Z,0.00
2019-02-06T03:49:16.181Z,0.00
2019-02-06T03:50:16.191Z,0.00
2019-02-06T03:51:16.160Z,0.00
2019-02-06T03:52:16.152Z,0.00
2019-02-06T03:53:16.140Z,0.00
2019-02-06T03:54:16.133Z,0.00
2019-02-06T03:55:16.149Z,0.00
2019-02-06T03:56:16.109Z,0.00
2019-02-06T03:57:16.094Z,0.00
2019-02-06T03:58:16.082Z,0.00
2019-02-06T03:59:16.071Z,0.00
2019-02-06T04:00:16.089Z,0.00
2019-02-06T04:01:16.056Z,0.00
2019-02-06T04:02:16.038Z,0.00
2019-02-06T04:03:16.030Z,0.00
2019-02-06T04:04:16.017Z,0.00
2019-02-06T04:05:16.032Z,0.00
2019-02-06T04:06:16.002Z,0.00
2019-02-06T04:07:15.986Z,0.00
2019-02-06T04:08:15.981Z,0.00
2019-02-06T04:09:15.964Z,0.00
2019-02-06T04:10:15.971Z,0.00
2019-02-06T04:11:15.940Z,0.00
2019-02-06T04:12:15.929Z,0.00
2019-02-06T04:13:15.918Z,0.00
2019-02-06T04:14:15.906Z,0.00
2019-02-06T04:15:15.947Z,0.00
2019-02-06T04:16:15.888Z,0.00
2019-02-06T04:17:15.874Z,0.00
2019-02-06T04:18:15.864Z,0.00
2019-02-06T04:19:15.851Z,0.00
2019-02-06T04:20:15.871Z,0.00
2019-02-06T04:21:15.830Z,0.00
2019-02-06T04:22:15.819Z,0.00
2019-02-06T04:23:15.809Z,0.00
2019-02-06T04:24:15.799Z,0.00
2019-02-06T04:25:15.809Z,0.00
2019-02-06T04:26:15.776Z,0.00
2019-02-06T04:27:15.766Z,0.00
2019-02-06T04:28:15.752Z,0.00
2019-02-06T04:29:15.744Z,0.00
2019-02-06T04:30:15.752Z,0.00
2019-02-06T04:31:15.726Z,0.00
2019-02-06T04:32:15.709Z,0.00
2019-02-06T04:33:15.699Z,0.00
2019-02-06T04:34:15.691Z,0.00
2019-02-06T04:35:15.704Z,0.00
2019-02-06T04:36:15.668Z,0.00
2019-02-06T04:37:15.655Z,0.00
2019-02-06T04:38:15.653Z,0.00
2019-02-06T04:39:15.632Z,0.00
2019-02-06T04:40:15.622Z,0.00
2019-02-06T04:41:15.629Z,0.00
2019-02-06T04:42:15.605Z,0.00
2019-02-06T04:43:15.589Z,0.00
2019-02-06T04:44:15.581Z,0.00
2019-02-06T04:45:15.576Z,0.00
2019-02-06T04:46:15.576Z,0.00
2019-02-06T04:47:15.591Z,0.00
2019-02-06T04:48:15.534Z,0.00
2019-02-06T04:49:15.523Z,0.00
2019-02-06T04:50:15.528Z,0.00
2019-02-06T04:51:15.521Z,0.00
2019-02-06T04:52:15.498Z,0.00
2019-02-06T04:53:15.486Z,0.00
2019-02-06T04:54:15.469Z,0.00
2019-02-06T04:55:15.463Z,0.00
2019-02-06T04:56:15.468Z,0.00
2019-02-06T04:57:15.436Z,0.00
2019-02-06T04:58:15.427Z,0.00
2019-02-06T04:59:15.416Z,0.00
2019-02-06T05:00:15.407Z,0.00
2019-02-06T05:01:15.412Z,0.00
2019-02-06T05:02:15.380Z,0.00
2019-02-06T05:03:15.371Z,0.00
2019-02-06T05:04:15.363Z,0.00
2019-02-06T05:05:15.349Z,0.00
2019-02-06T05:06:15.357Z,0.00
2019-02-06T05:07:19.362Z,0.00
2019-02-06T05:08:15.318Z,0.00
2019-02-06T05:09:15.322Z,0.00
2019-02-06T05:10:15.296Z,0.00
2019-02-06T05:11:15.303Z,0.00
2019-02-06T05:12:15.272Z,0.00
2019-02-06T05:13:15.260Z,0.00
2019-02-06T05:14:15.259Z,0.00
2019-02-06T05:15:15.246Z,0.00
2019-02-06T05:16:15.247Z,0.00
2019-02-06T05:17:15.223Z,0.00
2019-02-06T05:18:15.208Z,0.00
2019-02-06T05:19:15.198Z,0.00
2019-02-06T05:20:15.192Z,0.00
2019-02-06T05:21:15.193Z,0.00
2019-02-06T05:22:15.163Z,0.00
2019-02-06T05:23:15.152Z,0.00
2019-02-06T05:24:15.146Z,0.00
2019-02-06T05:25:15.130Z,0.00
2019-02-06T05:26:15.145Z,0.00
2019-02-06T05:27:15.114Z,0.00
2019-02-06T05:28:18.035Z,0.00
2019-02-06T05:29:15.086Z,0.00
2019-02-06T05:30:15.078Z,0.00
2019-02-06T05:31:15.085Z,0.00
2019-02-06T05:32:15.055Z,0.00
2019-02-06T05:33:15.046Z,0.00
2019-02-06T05:34:24.295Z,0.00
2019-02-06T05:35:15.024Z,0.00
2019-02-06T05:36:15.033Z,0.00
2019-02-06T05:37:15.027Z,0.00
2019-02-06T05:38:14.990Z,0.00
2019-02-06T05:39:14.988Z,0.00
2019-02-06T05:40:14.968Z,0.00
2019-02-06T05:41:15.045Z,0.00
2019-02-06T05:42:14.947Z,0.00
2019-02-06T05:43:14.936Z,0.00
2019-02-06T05:44:14.926Z,0.00
2019-02-06T05:45:14.916Z,0.00
2019-02-06T05:46:14.925Z,0.00
2019-02-06T05:47:14.891Z,0.00
2019-02-06T05:48:14.882Z,0.00
2019-02-06T05:49:14.901Z,0.00
2019-02-06T05:50:14.865Z,0.00
2019-02-06T05:51:14.897Z,0.00
2019-02-06T05:52:14.836Z,0.00
2019-02-06T05:53:14.825Z,0.00
2019-02-06T05:54:14.818Z,0.00
2019-02-06T05:55:14.803Z,0.00
2019-02-06T05:56:23.460Z,0.00
2019-02-06T05:57:14.782Z,0.00
2019-02-06T05:58:14.770Z,0.00
2019-02-06T05:59:14.760Z,0.00
2019-02-06T06:00:14.750Z,0.00
2019-02-06T06:01:14.758Z,0.00
2019-02-06T06:02:14.726Z,0.00
2019-02-06T06:03:14.715Z,0.00
2019-02-06T06:04:14.706Z,0.00
2019-02-06T06:05:14.699Z,0.00
2019-02-06T06:06:14.701Z,0.00
2019-02-06T06:07:14.671Z,0.00
2019-02-06T06:08:14.662Z,0.00
2019-02-06T06:09:14.650Z,0.00
2019-02-06T06:10:14.641Z,0.00
2019-02-06T06:11:14.659Z,0.00
2019-02-06T06:12:14.629Z,0.00
2019-02-06T06:13:14.608Z,0.00
2019-02-06T06:14:14.597Z,0.00
2019-02-06T06:15:14.589Z,0.00
2019-02-06T06:16:14.577Z,0.00
2019-02-06T06:17:14.582Z,0.00
2019-02-06T06:18:14.553Z,0.00
2019-02-06T06:19:14.541Z,0.00
2019-02-06T06:20:23.297Z,0.00
2019-02-06T06:21:14.518Z,0.00
2019-02-06T06:22:14.532Z,0.00
2019-02-06T06:23:14.511Z,0.00
2019-02-06T06:24:14.485Z,0.00
2019-02-06T06:25:14.475Z,0.00
2019-02-06T06:26:14.467Z,0.00
2019-02-06T06:27:14.476Z,0.00
2019-02-06T06:28:14.440Z,0.00
2019-02-06T06:29:14.432Z,4.00
2019-02-06T06:30:14.418Z,0.00
2019-02-06T06:31:14.412Z,4.00
2019-02-06T06:32:14.419Z,4.00
2019-02-06T06:33:14.386Z,0.00
2019-02-06T06:34:14.376Z,4.00
2019-02-06T06:35:14.365Z,4.00
2019-02-06T06:36:14.352Z,0.00
2019-02-06T06:37:14.361Z,4.00
2019-02-06T06:38:14.330Z,4.00
2019-02-06T06:39:14.319Z,8.00
2019-02-06T06:40:14.308Z,8.00
2019-02-06T06:41:14.300Z,8.00
2019-02-06T06:42:14.306Z,8.00
2019-02-06T06:43:16.249Z,8.00
2019-02-06T06:44:14.264Z,16.00
2019-02-06T06:45:14.260Z,12.00
2019-02-06T06:46:14.304Z,16.00
2019-02-06T06:47:14.251Z,20.00
2019-02-06T06:48:14.219Z,24.00
2019-02-06T06:49:14.209Z,24.00
2019-02-06T06:50:14.200Z,28.00
2019-02-06T06:51:14.186Z,28.00
2019-02-06T06:52:14.198Z,32.00
2019-02-06T06:53:14.166Z,36.00
2019-02-06T06:54:14.156Z,40.00
2019-02-06T06:55:14.144Z,44.00
2019-02-06T06:56:14.133Z,52.00
2019-02-06T06:57:14.141Z,52.00
2019-02-06T06:58:14.116Z,60.00
2019-02-06T06:59:14.099Z,64.00
2019-02-06T07:00:14.091Z,72.00
2019-02-06T07:01:14.079Z,80.00
2019-02-06T07:02:14.094Z,88.00
2019-02-06T07:03:14.056Z,92.00
2019-02-06T07:04:14.048Z,100.00
2019-02-06T07:05:14.057Z,104.00
2019-02-06T07:06:14.028Z,116.00
2019-02-06T07:07:14.032Z,124.00
2019-02-06T07:08:14.000Z,136.00
2019-02-06T07:09:13.992Z,144.00
2019-02-06T07:10:13.980Z,156.00
2019-02-06T07:11:13.970Z,168.00
2019-02-06T07:12:13.983Z,180.00
2019-02-06T07:13:13.948Z,196.00
2019-02-06T07:14:13.937Z,212.00
2019-02-06T07:15:22.760Z,224.00
2019-02-06T07:16:13.914Z,240.00
2019-02-06T07:17:13.922Z,260.00
2019-02-06T07:18:13.892Z,276.00
2019-02-06T07:19:13.881Z,296.00
2019-02-06T07:20:13.874Z,312.00
2019-02-06T07:21:13.865Z,336.00
2019-02-06T07:22:13.867Z,360.00
2019-02-06T07:23:13.838Z,380.00
2019-02-06T07:24:13.827Z,404.00
2019-02-06T07:25:13.816Z,424.00
2019-02-06T07:26:22.306Z,452.00
2019-02-06T07:27:13.812Z,476.00
2019-02-06T07:28:13.782Z,508.00
2019-02-06T07:29:13.772Z,532.00
2019-02-06T07:30:13.761Z,564.00
2019-02-06T07:31:13.750Z,596.00
2019-02-06T07:32:13.759Z,628.00
2019-02-06T07:33:13.728Z,664.00
2019-02-06T07:34:13.719Z,704.00
2019-02-06T07:35:13.709Z,740.00
2019-02-06T07:36:13.694Z,784.00
2019-02-06T07:37:13.706Z,828.00
2019-02-06T07:38:23.899Z,872.00
2019-02-06T07:39:13.665Z,916.00
2019-02-06T07:40:13.655Z,972.00
2019-02-06T07:41:13.640Z,1028.00
2019-02-06T07:42:13.675Z,1096.00
2019-02-06T07:43:13.634Z,1196.00
2019-02-06T07:44:13.629Z,1296.00
2019-02-06T07:45:13.596Z,1396.00
2019-02-06T07:46:13.585Z,1492.00
2019-02-06T07:47:13.575Z,1536.00
2019-02-06T07:48:13.584Z,1604.00
2019-02-06T07:49:13.552Z,1668.00
2019-02-06T07:50:13.544Z,1696.00
2019-02-06T07:51:13.530Z,1772.00
2019-02-06T07:52:13.520Z,1916.00
2019-02-06T07:53:13.530Z,2024.00
2019-02-06T07:54:13.499Z,2048.00
2019-02-06T07:55:13.492Z,2032.00
2019-02-06T07:56:13.484Z,2124.00
2019-02-06T07:57:13.465Z,2244.00
2019-02-06T07:58:13.471Z,2416.00
2019-02-06T07:59:13.442Z,2504.00
2019-02-06T08:00:13.431Z,2492.00
2019-02-06T08:01:13.427Z,2468.00
2019-02-06T08:02:13.408Z,2520.00
2019-02-06T08:03:13.415Z,2680.00
2019-02-06T08:04:13.386Z,3032.00
2019-02-06T08:05:13.379Z,3616.00
2019-02-06T08:06:13.375Z,3364.00
2019-02-06T08:07:13.354Z,3608.00
2019-02-06T08:08:13.365Z,3832.00
2019-02-06T08:09:13.333Z,3992.00
2019-02-06T08:10:13.319Z,4320.00
2019-02-06T08:11:13.309Z,4424.00
2019-02-06T08:12:13.297Z,4632.00
2019-02-06T08:13:13.305Z,5208.00
2019-02-06T08:14:13.274Z,5732.00
2019-02-06T08:15:13.270Z,5772.00
2019-02-06T08:16:13.254Z,5936.00
2019-02-06T08:17:13.241Z,6476.00
2019-02-06T08:18:13.250Z,6556.00
2019-02-06T08:19:13.222Z,7004.00
2019-02-06T08:20:13.207Z,6784.00
2019-02-06T08:21:13.196Z,6572.00
2019-02-06T08:22:13.186Z,7280.00
2019-02-06T08:23:13.195Z,7220.00
2019-02-06T08:24:13.163Z,6332.00
2019-02-06T08:25:13.263Z,5708.00
2019-02-06T08:26:13.140Z,5436.00
2019-02-06T08:27:13.132Z,4868.00
2019-02-06T08:28:13.137Z,4112.00
2019-02-06T08:29:13.114Z,3860.00
2019-02-06T08:30:13.102Z,5300.00
2019-02-06T08:31:13.085Z,5652.00
2019-02-06T08:32:13.077Z,5920.00
2019-02-06T08:33:13.092Z,5708.00
2019-02-06T08:34:13.051Z,5604.00
2019-02-06T08:35:13.042Z,5584.00
2019-02-06T08:36:13.033Z,5408.00
2019-02-06T08:37:13.018Z,5184.00
2019-02-06T08:38:13.025Z,5260.00
2019-02-06T08:39:12.995Z,5212.00
2019-02-06T08:40:12.988Z,5036.00
2019-02-06T08:41:12.977Z,4708.00
2019-02-06T08:42:12.963Z,4420.00
2019-02-06T08:43:12.974Z,4120.00
2019-02-06T08:44:12.942Z,3692.00
2019-02-06T08:45:12.929Z,3336.00
2019-02-06T08:46:12.922Z,3036.00
2019-02-06T08:47:12.919Z,2972.00
2019-02-06T08:48:12.915Z,3016.00
2019-02-06T08:49:12.892Z,3096.00
2019-02-06T08:50:12.875Z,3156.00
2019-02-06T08:51:12.864Z,3080.00
2019-02-06T08:52:12.853Z,2988.00
2019-02-06T08:53:12.865Z,2928.00
2019-02-06T08:54:12.830Z,2956.00
2019-02-06T08:55:12.819Z,3000.00
2019-02-06T08:56:12.807Z,3020.00
2019-02-06T08:57:12.799Z,3128.00
2019-02-06T08:58:12.817Z,3260.00
2019-02-06T08:59:12.775Z,3344.00
2019-02-06T09:00:12.765Z,3560.00
2019-02-06T09:01:12.757Z,3648.00
2019-02-06T09:02:12.744Z,3644.00
2019-02-06T09:03:12.750Z,3676.00
2019-02-06T09:04:12.723Z,3584.00
2019-02-06T09:05:12.712Z,3468.00
2019-02-06T09:06:12.697Z,3492.00
2019-02-06T09:07:12.685Z,3572.00
2019-02-06T09:08:12.694Z,3548.00
2019-02-06T09:09:12.671Z,3524.00
2019-02-06T09:10:13.410Z,3508.00
2019-02-06T09:11:12.642Z,3560.00
2019-02-06T09:12:12.631Z,3600.00
2019-02-06T09:13:12.638Z,3688.00
2019-02-06T09:14:12.608Z,3848.00
2019-02-06T09:15:12.600Z,3960.00
2019-02-06T09:16:12.586Z,4064.00
2019-02-06T09:17:12.577Z,4328.00
2019-02-06T09:18:12.583Z,4464.00
2019-02-06T09:19:12.552Z,4452.00
2019-02-06T09:20:12.543Z,4616.00
2019-02-06T09:21:12.530Z,4928.00
2019-02-06T09:22:12.520Z,5320.00
2019-02-06T09:23:12.513Z,5232.00
2019-02-06T09:24:12.519Z,5092.00
2019-02-06T09:25:12.489Z,5120.00
2019-02-06T09:26:12.489Z,5104.00
2019-02-06T09:27:12.465Z,5144.00
2019-02-06T09:28:12.456Z,5148.00
2019-02-06T09:29:12.463Z,5304.00
2019-02-06T09:30:12.431Z,5460.00
2019-02-06T09:31:12.420Z,5892.00
2019-02-06T09:32:12.420Z,6384.00
2019-02-06T09:33:12.398Z,6628.00
2019-02-06T09:34:12.406Z,6624.00
2019-02-06T09:35:12.376Z,6324.00
2019-02-06T09:36:12.364Z,6088.00
2019-02-06T09:37:12.356Z,5956.00
2019-02-06T09:38:12.341Z,6128.00
2019-02-06T09:39:12.353Z,6084.00
2019-02-06T09:40:12.320Z,5944.00
2019-02-06T09:41:12.309Z,5672.00
2019-02-06T09:42:12.304Z,5428.00
2019-02-06T09:43:12.288Z,5016.00
2019-02-06T09:44:12.296Z,5272.00
2019-02-06T09:45:12.264Z,5288.00
2019-02-06T09:46:12.256Z,5008.00
2019-02-06T09:47:12.245Z,4748.00
2019-02-06T09:48:12.234Z,4284.00
2019-02-06T09:49:14.972Z,3956.00
2019-02-06T09:50:12.209Z,3884.00
2019-02-06T09:51:12.197Z,3756.00
2019-02-06T09:52:12.191Z,3676.00
2019-02-06T09:53:12.176Z,3568.00
2019-02-06T09:54:12.185Z,3476.00
2019-02-06T09:55:12.153Z,3380.00
2019-02-06T09:56:12.143Z,3432.00
2019-02-06T09:57:12.133Z,3556.00
2019-02-06T09:58:12.140Z,3700.00
2019-02-06T09:59:12.110Z,3752.00
2019-02-06T10:00:12.103Z,3812.00
2019-02-06T10:01:12.089Z,3868.00
2019-02-06T10:02:12.077Z,3920.00
2019-02-06T10:03:12.083Z,3988.00
2019-02-06T10:04:12.053Z,4212.00
2019-02-06T10:05:12.041Z,4348.00
2019-02-06T10:06:12.031Z,4336.00
2019-02-06T10:07:12.023Z,4392.00
2019-02-06T10:08:12.027Z,4604.00
2019-02-06T10:09:22.296Z,4740.00
2019-02-06T10:10:12.987Z,5140.00
2019-02-06T10:11:11.975Z,5440.00
2019-02-06T10:12:12.055Z,5572.00
2019-02-06T10:13:11.971Z,5188.00
2019-02-06T10:14:11.941Z,5016.00
2019-02-06T10:15:11.931Z,5116.00
2019-02-06T10:16:11.923Z,5144.00
2019-02-06T10:17:11.908Z,5104.00
2019-02-06T10:18:11.922Z,4724.00
2019-02-06T10:19:11.889Z,4820.00
2019-02-06T10:20:11.875Z,4836.00
2019-02-06T10:21:11.864Z,4812.00
2019-02-06T10:22:11.853Z,5112.00
2019-02-06T10:23:11.860Z,5860.00
2019-02-06T10:24:11.842Z,7004.00
2019-02-06T10:25:11.819Z,8980.00
2019-02-06T10:26:11.810Z,13052.00
2019-02-06T10:27:11.798Z,14240.00
2019-02-06T10:28:11.804Z,12784.00
2019-02-06T10:29:11.775Z,12732.00
2019-02-06T10:30:11.763Z,12036.00
2019-02-06T10:31:11.757Z,9928.00
2019-02-06T10:32:11.741Z,8708.00
2019-02-06T10:33:11.751Z,10188.00
2019-02-06T10:34:11.781Z,15904.00
2019-02-06T10:35:11.707Z,15424.00
2019-02-06T10:36:11.704Z,13352.00
2019-02-06T10:37:11.687Z,17920.00
2019-02-06T10:38:11.693Z,23616.00
2019-02-06T10:39:11.669Z,22368.00
2019-02-06T10:40:11.659Z,21856.00
2019-02-06T10:41:11.646Z,20704.00
2019-02-06T10:42:11.630Z,19008.00
2019-02-06T10:43:11.641Z,16384.00
2019-02-06T10:44:11.609Z,14560.00
2019-02-06T10:45:11.596Z,11108.00
2019-02-06T10:46:11.586Z,9136.00
2019-02-06T10:47:11.576Z,8736.00
2019-02-06T10:48:11.585Z,8648.00
2019-02-06T10:49:11.553Z,9608.00
2019-02-06T10:50:11.542Z,10560.00
2019-02-06T10:51:11.530Z,9288.00
2019-02-06T10:52:11.519Z,8752.00
2019-02-06T10:53:11.557Z,10180.00
2019-02-06T10:54:14.530Z,11288.00
2019-02-06T10:55:11.490Z,11160.00
2019-02-06T10:56:11.560Z,13220.00
2019-02-06T10:57:11.464Z,17376.00
2019-02-06T10:58:11.454Z,12292.00
2019-02-06T10:59:11.460Z,11540.00
2019-02-06T11:00:11.432Z,8644.00
2019-02-06T11:01:11.423Z,7916.00
2019-02-06T11:02:11.409Z,10372.00
2019-02-06T11:03:11.399Z,15040.00
2019-02-06T11:04:11.407Z,16320.00
2019-02-06T11:05:11.381Z,10816.00
2019-02-06T11:06:11.368Z,8124.00
2019-02-06T11:07:11.355Z,7384.00
2019-02-06T11:08:11.343Z,6872.00
2019-02-06T11:09:11.354Z,6444.00
2019-02-06T11:10:11.325Z,7112.00
2019-02-06T11:11:11.315Z,8372.00
2019-02-06T11:12:11.302Z,12128.00
2019-02-06T11:13:11.294Z,12096.00
2019-02-06T11:14:11.296Z,11596.00
2019-02-06T11:15:11.265Z,10360.00
2019-02-06T11:16:11.254Z,9512.00
2019-02-06T11:17:11.247Z,9352.00
2019-02-06T11:18:11.234Z,9524.00
2019-02-06T11:19:11.240Z,9104.00
2019-02-06T11:20:11.210Z,9040.00
2019-02-06T11:21:11.198Z,9052.00
2019-02-06T11:22:11.187Z,9452.00
2019-02-06T11:23:11.178Z,9344.00
2019-02-06T11:24:11.185Z,8960.00
2019-02-06T11:25:11.155Z,8364.00
2019-02-06T11:26:11.143Z,8424.00
2019-02-06T11:27:11.131Z,8360.00
2019-02-06T11:28:11.120Z,8524.00
2019-02-06T11:29:11.126Z,8476.00
2019-02-06T11:30:11.098Z,8320.00
2019-02-06T11:31:11.086Z,8532.00
2019-02-06T11:32:11.077Z,8908.00
2019-02-06T11:33:11.083Z,8860.00
2019-02-06T11:34:11.076Z,8588.00
2019-02-06T11:35:11.065Z,8596.00
2019-02-06T11:36:11.055Z,8604.00
2019-02-06T11:37:11.020Z,8956.00
2019-02-06T11:38:11.010Z,9248.00
2019-02-06T11:39:11.028Z,9660.00
2019-02-06T11:40:10.987Z,10304.00
2019-02-06T11:41:10.975Z,10836.00
2019-02-06T11:42:10.964Z,11128.00
2019-02-06T11:43:10.952Z,11640.00
2019-02-06T11:44:10.959Z,11848.00
2019-02-06T11:45:10.935Z,11520.00
2019-02-06T11:46:10.922Z,10248.00
2019-02-06T11:47:10.917Z,9872.00
2019-02-06T11:48:10.898Z,9676.00
2019-02-06T11:49:10.905Z,9428.00
2019-02-06T11:50:10.879Z,11480.00
2019-02-06T11:51:10.862Z,11680.00
2019-02-06T11:52:10.855Z,12624.00
2019-02-06T11:53:10.841Z,13076.00
2019-02-06T11:54:10.851Z,12644.00
2019-02-06T11:55:10.819Z,13084.00
2019-02-06T11:56:10.810Z,13396.00
2019-02-06T11:57:10.801Z,12700.00
2019-02-06T11:58:10.787Z,11436.00
2019-02-06T11:59:10.793Z,9876.00
2019-02-06T12:00:10.762Z,9204.00
2019-02-06T12:01:10.751Z,8280.00
2019-02-06T12:02:10.740Z,7660.00
2019-02-06T12:03:10.733Z,7788.00
2019-02-06T12:04:10.741Z,7544.00
2019-02-06T12:05:10.711Z,7120.00
2019-02-06T12:06:10.698Z,7608.00
2019-02-06T12:07:10.685Z,8260.00
2019-02-06T12:08:12.672Z,8508.00
2019-02-06T12:09:10.678Z,9680.00
2019-02-06T12:10:10.653Z,9456.00
2019-02-06T12:11:10.638Z,8784.00
2019-02-06T12:12:10.628Z,9060.00
2019-02-06T12:13:10.638Z,9336.00
2019-02-06T12:14:10.623Z,9736.00
2019-02-06T12:15:10.596Z,10576.00
2019-02-06T12:16:10.584Z,11240.00
2019-02-06T12:17:10.574Z,11796.00
2019-02-06T12:18:10.562Z,12508.00
2019-02-06T12:19:10.568Z,13628.00
2019-02-06T12:20:10.548Z,14368.00
2019-02-06T12:21:10.531Z,14272.00
2019-02-06T12:22:10.521Z,13052.00
2019-02-06T12:23:10.504Z,12896.00
2019-02-06T12:24:10.549Z,12992.00
2019-02-06T12:25:10.524Z,15968.00
2019-02-06T12:26:10.497Z,19264.00
2019-02-06T12:27:10.472Z,20288.00
2019-02-06T12:28:10.473Z,17760.00
2019-02-06T12:29:10.499Z,18912.00
2019-02-06T12:30:10.434Z,21216.00
2019-02-06T12:31:10.419Z,19776.00
2019-02-06T12:32:10.409Z,19520.00
2019-02-06T12:33:10.400Z,18784.00
2019-02-06T12:34:10.387Z,19168.00
2019-02-06T12:35:10.391Z,21568.00
2019-02-06T12:36:10.367Z,25216.00
2019-02-06T12:37:10.348Z,28704.00
2019-02-06T12:38:10.338Z,32672.00
2019-02-06T12:39:10.326Z,36064.00
2019-02-06T12:40:20.812Z,38272.00
2019-02-06T12:41:10.306Z,39168.00
2019-02-06T12:42:10.292Z,39616.00